createdAt,value
2023-01-15T00:00:57.981Z,9.88
2023-01-15T00:03:59.557Z,9.67
2023-01-15T00:07:02.218Z,9.83
2023-01-15T00:10:04.337Z,9.86
2023-01-15T00:13:07.768Z,9.84
2023-01-15T00:16:13.853Z,9.76
2023-01-15T00:19:15.560Z,9.84
2023-01-15T00:22:18.411Z,9.98
2023-01-15T00:29:01.769Z,10.01
2023-01-15T00:32:06.918Z,9.98
2023-01-15T00:35:12.943Z,9.91
2023-01-15T00:38:15.971Z,10.06
2023-01-15T00:41:18.883Z,9.88
2023-01-15T00:44:21.869Z,9.93
2023-01-15T00:47:24.802Z,9.94
2023-01-15T00:50:26.419Z,9.86
2023-01-15T00:53:29.367Z,9.94
2023-01-15T00:56:32.992Z,10.20
2023-01-15T00:59:35.285Z,9.97
2023-01-15T01:02:38.170Z,9.95
2023-01-15T01:05:39.782Z,10.00
2023-01-15T01:08:42.848Z,10.07
2023-01-15T01:11:45.943Z,10.22
2023-01-15T01:14:48.238Z,10.16
2023-01-15T01:17:51.148Z,10.10
2023-01-15T01:20:53.000Z,10.12
2023-01-15T01:23:55.872Z,10.06
2023-01-15T01:26:57.403Z,10.11
2023-01-15T01:30:00.970Z,10.17
2023-01-15T01:33:02.476Z,10.32
2023-01-15T01:36:07.774Z,10.18
2023-01-15T01:42:36.972Z,10.33
2023-01-15T01:45:39.193Z,10.52
2023-01-15T01:48:40.827Z,10.30
2023-01-15T01:51:46.445Z,10.34
2023-01-15T01:54:51.195Z,10.26
2023-01-15T01:57:56.356Z,10.21
2023-01-15T02:01:01.258Z,10.23
2023-01-15T02:04:07.084Z,10.33
2023-01-15T02:07:09.929Z,10.25
2023-01-15T02:10:15.510Z,10.32
2023-01-15T02:13:26.236Z,10.29
2023-01-15T02:16:36.388Z,10.22
2023-01-15T02:19:49.821Z,10.09
2023-01-15T02:23:26.512Z,10.29
2023-01-15T02:30:29.730Z,10.14
2023-01-15T02:33:35.284Z,10.15
2023-01-15T02:36:42.371Z,10.15
2023-01-15T02:39:47.516Z,10.07
2023-01-15T02:46:16.191Z,10.05
2023-01-15T02:49:20.863Z,9.98
2023-01-15T02:52:29.073Z,9.97
2023-01-15T02:55:34.896Z,9.99
2023-01-15T02:58:42.782Z,10.00
2023-01-15T03:01:49.576Z,9.99
2023-01-15T03:04:55.741Z,9.94
2023-01-15T03:08:00.916Z,9.89
2023-01-15T03:11:07.794Z,9.85
2023-01-15T03:14:20.085Z,9.83
2023-01-15T03:17:29.490Z,9.90
2023-01-15T03:20:34.703Z,9.91
2023-01-15T03:23:41.771Z,9.94
2023-01-15T03:26:43.664Z,9.90
2023-01-15T03:29:49.493Z,9.86
2023-01-15T03:32:51.164Z,9.80
2023-01-15T03:35:56.871Z,9.86
2023-01-15T03:39:00.472Z,9.95
2023-01-15T03:42:14.300Z,10.03
2023-01-15T03:45:24.634Z,9.93
2023-01-15T03:48:34.239Z,10.05
2023-01-15T03:51:43.718Z,9.90
2023-01-15T03:54:54.176Z,9.48
2023-01-15T03:58:00.398Z,9.35
2023-01-15T04:01:05.767Z,9.07
2023-01-15T04:04:09.418Z,8.91
2023-01-15T04:07:13.056Z,8.88
2023-01-15T04:10:14.734Z,8.90
2023-01-15T04:13:37.642Z,8.83
2023-01-15T04:16:40.047Z,8.44
2023-01-15T04:19:44.310Z,8.26
2023-01-15T04:22:45.847Z,7.85
2023-01-15T04:25:48.877Z,7.82
2023-01-15T04:28:50.472Z,7.70
2023-01-15T04:31:58.069Z,7.66
2023-01-15T04:34:59.792Z,7.55
2023-01-15T04:38:01.633Z,7.41
2023-01-15T04:41:22.207Z,7.07
2023-01-15T04:44:26.912Z,7.07
2023-01-15T04:47:32.350Z,6.87
2023-01-15T04:50:33.929Z,6.96
2023-01-15T04:53:35.930Z,6.95
2023-01-15T04:56:40.716Z,6.94
2023-01-15T04:59:42.419Z,6.93
2023-01-15T05:02:44.622Z,6.96
2023-01-15T05:05:47.369Z,6.87
2023-01-15T05:08:50.155Z,6.88
2023-01-15T05:11:51.632Z,6.94
2023-01-15T05:14:54.443Z,7.07
2023-01-15T05:17:57.042Z,6.95
2023-01-15T05:20:59.804Z,6.97
2023-01-15T05:24:07.111Z,6.93
2023-01-15T05:27:08.642Z,6.96
2023-01-15T05:30:11.518Z,6.90
2023-01-15T05:33:14.009Z,6.98
2023-01-15T05:36:18.346Z,6.96
2023-01-15T05:39:21.117Z,6.92
2023-01-15T05:42:22.800Z,6.90
2023-01-15T05:45:25.712Z,6.90
2023-01-15T05:48:28.433Z,6.92
2023-01-15T05:54:52.612Z,6.89
2023-01-15T05:57:54.442Z,6.88
2023-01-15T06:00:57.594Z,6.91
2023-01-15T06:04:00.895Z,6.89
2023-01-15T06:07:03.872Z,6.87
2023-01-15T06:10:07.989Z,6.98
2023-01-15T06:13:09.270Z,6.99
2023-01-15T06:16:12.730Z,7.01
2023-01-15T06:19:14.737Z,7.04
2023-01-15T06:22:18.691Z,7.06
2023-01-15T06:25:21.243Z,7.13
2023-01-15T06:28:22.574Z,7.05
2023-01-15T06:31:27.349Z,7.06
2023-01-15T06:34:29.549Z,7.06
2023-01-15T06:37:32.124Z,7.00
2023-01-15T06:40:33.437Z,7.00
2023-01-15T06:43:53.967Z,6.93
2023-01-15T06:47:14.640Z,6.95
2023-01-15T06:50:17.368Z,6.94
2023-01-15T06:53:18.797Z,7.00
2023-01-15T06:56:21.366Z,7.03
2023-01-15T06:59:22.904Z,7.09
2023-01-15T07:02:24.250Z,7.13
2023-01-15T07:22:37.862Z,7.31
2023-01-15T07:25:39.349Z,7.27
2023-01-15T07:28:41.474Z,7.16
2023-01-15T07:31:43.064Z,6.91
2023-01-15T07:34:45.701Z,6.96
2023-01-15T07:37:51.644Z,6.83
2023-01-15T07:41:11.527Z,6.83
2023-01-15T07:44:31.612Z,6.93
2023-01-15T07:47:52.394Z,6.91
2023-01-15T07:50:53.715Z,7.00
2023-01-15T07:53:55.942Z,6.78
2023-01-15T07:56:57.415Z,6.71
2023-01-15T07:59:59.972Z,6.88
2023-01-15T08:03:02.767Z,6.83
2023-01-15T08:06:05.532Z,6.90
2023-01-15T08:09:07.581Z,7.01
2023-01-15T08:12:30.124Z,6.89
2023-01-15T08:15:35.925Z,6.98
2023-01-15T08:18:37.252Z,7.05
2023-01-15T08:21:40.024Z,6.82
2023-01-15T08:24:43.328Z,6.86
2023-01-15T08:27:46.542Z,6.98
2023-01-15T08:30:49.087Z,6.82
2023-01-15T08:33:50.593Z,6.85
2023-01-15T08:36:59.185Z,6.95
2023-01-15T08:40:02.467Z,6.92
2023-01-15T08:43:03.776Z,6.90
2023-01-15T08:46:06.934Z,6.92
2023-01-15T08:49:09.502Z,7.12
2023-01-15T08:52:10.876Z,7.15
2023-01-15T08:55:14.111Z,6.99
2023-01-15T08:58:15.794Z,7.01
2023-01-15T09:01:18.429Z,7.17
2023-01-15T09:04:21.200Z,7.13
2023-01-15T09:07:23.771Z,7.16
2023-01-15T09:10:25.843Z,7.24
2023-01-15T09:13:28.404Z,7.21
2023-01-15T09:19:52.253Z,7.27
2023-01-15T09:22:53.574Z,7.25
2023-01-15T09:25:58.508Z,7.33
2023-01-15T09:29:00.592Z,7.22
2023-01-15T09:32:03.992Z,7.18
2023-01-15T09:35:06.184Z,7.29
2023-01-15T09:38:07.598Z,7.48
2023-01-15T09:41:32.770Z,7.27
2023-01-15T09:44:44.956Z,7.34
2023-01-15T09:48:01.497Z,7.43
2023-01-15T09:51:12.685Z,7.48
2023-01-15T09:54:27.211Z,7.46
2023-01-15T09:57:30.080Z,7.52
2023-01-15T10:00:39.040Z,7.71
2023-01-15T10:03:46.078Z,7.71
2023-01-15T10:06:54.526Z,7.79
2023-01-15T10:13:32.350Z,7.79
2023-01-15T10:16:33.674Z,7.91
2023-01-15T10:19:44.397Z,7.75
2023-01-15T10:23:02.449Z,7.75
2023-01-15T10:26:19.259Z,7.92
2023-01-15T10:29:31.664Z,7.97
2023-01-15T10:33:01.132Z,8.09
2023-01-15T10:36:08.313Z,8.31
2023-01-15T10:39:16.639Z,8.11
2023-01-15T10:42:33.486Z,8.16
2023-01-15T10:45:42.502Z,8.14
2023-01-15T10:48:47.319Z,8.09
2023-01-15T10:51:52.982Z,8.21
2023-01-15T10:55:03.289Z,8.29
2023-01-15T10:58:14.336Z,8.42
2023-01-15T11:01:20.877Z,8.38
2023-01-15T11:04:24.461Z,8.32
2023-01-15T11:07:35.529Z,8.37
2023-01-15T11:10:40.661Z,8.39
2023-01-15T11:14:11.429Z,8.20
2023-01-15T11:17:33.755Z,8.20
2023-01-15T11:20:42.380Z,8.28
2023-01-15T11:27:07.803Z,8.16
2023-01-15T11:30:26.664Z,8.21
2023-01-15T11:33:31.223Z,8.25
2023-01-15T11:36:33.850Z,8.20
2023-01-15T11:39:35.583Z,8.19
2023-01-15T11:42:56.096Z,8.31
2023-01-15T11:46:15.950Z,8.33
2023-01-15T11:49:40.404Z,8.34
2023-01-15T11:52:46.128Z,8.34
2023-01-15T11:55:53.123Z,8.21
2023-01-15T11:58:58.605Z,8.17
2023-01-15T12:02:04.501Z,8.31
2023-01-15T12:05:16.566Z,8.27
2023-01-15T12:08:31.903Z,8.24
2023-01-15T12:11:58.546Z,8.33
2023-01-15T12:15:12.468Z,8.45
2023-01-15T12:18:43.577Z,8.24
2023-01-15T12:22:03.261Z,8.26
2023-01-15T12:25:24.268Z,8.42
2023-01-15T12:28:33.069Z,8.42
2023-01-15T12:31:38.975Z,8.55
2023-01-15T12:34:47.329Z,8.62
2023-01-15T12:37:55.631Z,8.49
2023-01-15T12:41:03.915Z,8.63
2023-01-15T12:44:28.719Z,8.70
2023-01-15T12:47:35.876Z,8.50
2023-01-15T12:50:44.226Z,8.50
2023-01-15T12:53:51.238Z,8.48
2023-01-15T12:57:00.089Z,8.52
2023-01-15T13:00:07.734Z,8.33
2023-01-15T13:03:24.760Z,8.38
2023-01-15T13:06:27.893Z,8.32
2023-01-15T13:09:38.431Z,8.48
2023-01-15T13:12:40.231Z,8.76
2023-01-15T13:16:04.276Z,8.71
2023-01-15T13:19:32.361Z,8.59
2023-01-15T13:22:45.925Z,8.45
2023-01-15T13:26:14.091Z,8.46
2023-01-15T13:29:24.982Z,8.31
2023-01-15T13:32:29.183Z,8.33
2023-01-15T13:35:34.487Z,8.28
2023-01-15T13:38:40.783Z,8.29
2023-01-15T13:42:01.815Z,8.24
2023-01-15T13:45:28.309Z,8.22
2023-01-15T13:48:34.593Z,8.23
2023-01-15T13:51:39.810Z,8.00
2023-01-15T13:54:42.198Z,8.02
2023-01-15T14:01:22.906Z,8.21
2023-01-15T14:04:36.146Z,8.09
2023-01-15T14:07:41.994Z,7.96
2023-01-15T14:10:44.371Z,8.04
2023-01-15T14:14:31.217Z,8.07
2023-01-15T14:18:02.776Z,8.22
2023-01-15T14:21:31.250Z,7.97
2023-01-15T14:25:09.549Z,7.86
2023-01-15T14:28:40.904Z,8.08
2023-01-15T14:31:51.591Z,8.20
2023-01-15T14:34:57.880Z,8.07
2023-01-15T14:38:05.335Z,8.10
2023-01-15T14:41:08.485Z,8.19
2023-01-15T14:44:10.870Z,8.20
2023-01-15T14:47:26.890Z,8.03
2023-01-15T14:50:40.868Z,8.04
2023-01-15T14:53:45.741Z,8.07
2023-01-15T14:56:51.528Z,7.92
2023-01-15T14:59:58.880Z,8.01
2023-01-15T15:03:02.080Z,7.80
2023-01-15T15:06:07.599Z,7.77
2023-01-15T15:09:13.438Z,7.78
2023-01-15T15:12:25.318Z,7.59
2023-01-15T15:15:38.369Z,7.68
2023-01-15T15:18:45.224Z,7.75
2023-01-15T15:21:48.104Z,7.58
2023-01-15T15:24:55.169Z,7.64
2023-01-15T15:28:05.969Z,7.77
2023-01-15T15:31:10.055Z,7.57
2023-01-15T15:34:16.975Z,7.56
2023-01-15T15:37:20.325Z,7.54
2023-01-15T15:40:33.134Z,7.54
2023-01-15T15:44:02.189Z,7.44
2023-01-15T15:47:37.496Z,7.22
2023-01-15T15:50:41.226Z,7.29
2023-01-15T15:53:42.736Z,7.35
2023-01-15T15:56:52.871Z,7.12
2023-01-15T15:59:54.675Z,7.23
2023-01-15T16:03:01.728Z,7.07
2023-01-15T16:06:07.892Z,7.19
2023-01-15T16:09:09.835Z,6.99
2023-01-15T16:12:15.496Z,7.06
2023-01-15T16:15:19.305Z,7.02
2023-01-15T16:18:25.534Z,6.90
2023-01-15T16:21:33.440Z,6.96
2023-01-15T16:24:40.463Z,6.82
2023-01-15T16:27:43.439Z,6.87
2023-01-15T16:30:44.899Z,6.85
2023-01-15T16:33:49.307Z,6.88
2023-01-15T16:36:51.477Z,6.64
2023-01-15T16:39:54.802Z,6.88
2023-01-15T16:43:07.264Z,6.75
2023-01-15T16:46:19.974Z,6.86
2023-01-15T16:52:52.677Z,6.64
2023-01-15T16:55:56.283Z,6.59
2023-01-15T16:58:58.833Z,6.69
2023-01-15T17:02:07.409Z,6.63
2023-01-15T17:05:22.821Z,6.57
2023-01-15T17:08:35.064Z,6.67
2023-01-15T17:11:37.855Z,6.57
2023-01-15T17:14:39.392Z,6.49
2023-01-15T17:17:41.039Z,6.49
2023-01-15T17:20:44.617Z,6.55
2023-01-15T17:23:47.472Z,6.61
2023-01-15T17:26:50.423Z,6.44
2023-01-15T17:29:52.309Z,6.51
2023-01-15T17:32:53.888Z,6.35
2023-01-15T17:35:58.862Z,6.40
2023-01-15T17:39:02.073Z,6.53
2023-01-15T17:42:14.097Z,6.37
2023-01-15T17:45:19.226Z,6.28
2023-01-15T17:48:20.570Z,6.34
2023-01-15T17:51:22.891Z,6.32
2023-01-15T17:54:39.455Z,6.28
2023-01-15T17:58:00.288Z,6.28
2023-01-15T18:01:28.838Z,6.38
2023-01-15T18:04:51.764Z,6.18
2023-01-15T18:07:57.479Z,6.40
2023-01-15T18:11:02.542Z,6.26
2023-01-15T18:14:05.213Z,6.47
2023-01-15T18:17:06.859Z,6.41
2023-01-15T18:20:11.123Z,6.51
2023-01-15T18:23:12.408Z,6.26
2023-01-15T18:26:15.999Z,6.55
2023-01-15T18:32:39.875Z,6.47
2023-01-15T18:35:42.414Z,6.42
2023-01-15T18:38:44.106Z,6.42
2023-01-15T18:42:04.284Z,6.32
2023-01-15T18:45:24.871Z,6.36
2023-01-15T18:48:26.169Z,6.41
2023-01-15T18:51:29.177Z,6.37
2023-01-15T18:54:30.608Z,6.45
2023-01-15T18:57:34.589Z,6.48
2023-01-15T19:00:35.944Z,6.44
2023-01-15T19:03:38.624Z,6.69
2023-01-15T19:06:41.955Z,6.49
2023-01-15T19:09:43.707Z,6.48
2023-01-15T19:12:47.788Z,6.41
2023-01-15T19:16:18.968Z,6.45
2023-01-15T19:19:20.575Z,6.50
2023-01-15T19:22:41.302Z,6.66
2023-01-15T19:25:44.330Z,6.46
2023-01-15T19:28:46.365Z,6.41
2023-01-15T19:31:48.991Z,6.62
2023-01-15T19:34:54.708Z,6.44
2023-01-15T19:37:57.651Z,6.47
2023-01-15T19:41:20.553Z,6.31
2023-01-15T19:44:42.099Z,6.34
2023-01-15T19:48:01.271Z,6.41
2023-01-15T19:51:04.354Z,6.36
2023-01-15T19:54:06.465Z,6.50
2023-01-15T19:57:09.401Z,6.54
2023-01-15T20:00:15.098Z,6.70
2023-01-15T20:03:16.885Z,6.48
2023-01-15T20:06:19.770Z,6.54
2023-01-15T20:09:22.243Z,6.55
2023-01-15T20:12:43.044Z,6.62
2023-01-15T20:15:48.502Z,6.49
2023-01-15T20:18:50.517Z,6.71
2023-01-15T20:21:54.074Z,6.70
2023-01-15T20:24:56.444Z,6.78
2023-01-15T20:28:00.657Z,6.59
2023-01-15T20:31:03.269Z,6.59
2023-01-15T20:34:05.832Z,6.71
2023-01-15T20:37:08.690Z,6.59
2023-01-15T20:40:11.688Z,6.59
2023-01-15T20:43:31.302Z,6.52
2023-01-15T20:46:33.239Z,6.56
2023-01-15T20:49:34.788Z,6.56
2023-01-15T20:52:37.795Z,6.53
2023-01-15T20:55:54.682Z,6.58
2023-01-15T20:58:59.320Z,6.65
2023-01-15T21:02:01.344Z,6.60
2023-01-15T21:05:03.981Z,6.36
2023-01-15T21:08:06.632Z,6.40
2023-01-15T21:11:07.939Z,6.36
2023-01-15T21:14:10.454Z,6.39
2023-01-15T21:17:12.476Z,6.63
2023-01-15T21:20:17.327Z,6.54
2023-01-15T21:23:18.703Z,6.54
2023-01-15T21:26:21.293Z,6.50
2023-01-15T21:29:25.134Z,6.46
2023-01-15T21:32:27.622Z,6.42
2023-01-15T21:35:30.487Z,6.42
2023-01-15T21:38:32.096Z,6.44
2023-01-15T21:41:52.789Z,6.58
2023-01-15T21:44:55.370Z,6.35
2023-01-15T21:47:59.699Z,6.40
2023-01-15T21:51:05.842Z,6.31
2023-01-15T21:54:07.269Z,6.32
2023-01-15T21:57:10.754Z,6.40
2023-01-15T22:00:14.302Z,6.35
2023-01-15T22:03:18.526Z,6.26
2023-01-15T22:06:22.418Z,6.37
2023-01-15T22:09:24.084Z,6.19
2023-01-15T22:12:26.846Z,6.18
2023-01-15T22:15:29.678Z,6.34
2023-01-15T22:18:32.626Z,6.24
2023-01-15T22:21:36.487Z,6.21
2023-01-15T22:24:39.897Z,6.14
2023-01-15T22:27:44.055Z,6.19
2023-01-15T22:30:47.065Z,6.13
2023-01-15T22:33:50.688Z,6.10
2023-01-15T22:36:54.519Z,6.18
2023-01-15T22:39:56.135Z,6.21
2023-01-15T22:43:00.772Z,6.21
2023-01-15T22:46:11.079Z,6.15
2023-01-15T22:49:13.277Z,6.16
2023-01-15T22:52:16.700Z,6.22
2023-01-15T22:55:18.295Z,6.36
2023-01-15T23:01:44.371Z,6.20
2023-01-15T23:04:47.770Z,6.18
2023-01-15T23:07:51.047Z,6.12
2023-01-15T23:10:52.499Z,6.28
2023-01-15T23:13:54.155Z,6.02
2023-01-15T23:16:56.983Z,5.87
2023-01-15T23:19:59.381Z,6.01
2023-01-15T23:23:02.596Z,6.09
2023-01-15T23:26:05.289Z,5.92
2023-01-15T23:29:08.653Z,5.82
2023-01-15T23:32:10.353Z,5.93
2023-01-15T23:35:13.942Z,5.78
2023-01-15T23:38:16.835Z,5.80
2023-01-15T23:41:41.457Z,5.79
2023-01-15T23:44:58.816Z,5.85
2023-01-15T23:48:01.689Z,5.89
2023-01-15T23:51:04.530Z,5.93
2023-01-15T23:54:09.207Z,5.82
2023-01-15T23:57:10.883Z,5.78
